createdAt,value
2017-08-28T07:31:41.194Z,17.93
2017-08-28T07:32:51.476Z,17.98
2017-08-28T07:34:01.765Z,17.97
2017-08-28T07:35:12.034Z,18
2017-08-28T07:36:21.919Z,18.06
2017-08-28T07:37:32.194Z,18.13
2017-08-28T07:38:42.704Z,18.05
2017-08-28T07:39:53.016Z,18.06
2017-08-28T07:41:03.314Z,18.23
2017-08-28T07:42:13.858Z,18.28
2017-08-28T07:43:23.619Z,18.37
2017-08-28T07:44:33.939Z,18.33
2017-08-28T07:45:44.210Z,18.49
2017-08-28T07:46:54.479Z,18.66
2017-08-28T07:48:05.021Z,18.71
2017-08-28T07:49:15.297Z,18.86
2017-08-28T07:50:25.243Z,18.83
2017-08-28T07:51:35.215Z,18.86
2017-08-28T07:52:45.497Z,18.82
2017-08-28T07:53:56.040Z,18.89
2017-08-28T07:55:06.326Z,18.91
2017-08-28T07:56:16.613Z,18.91
2017-08-28T07:57:26.912Z,18.98
2017-08-28T07:58:36.915Z,18.91
2017-08-28T07:59:47.443Z,18.94
2017-08-28T08:00:57.728Z,18.96
2017-08-28T08:02:08.025Z,19.01
2017-08-28T08:03:18.350Z,19.01
2017-08-28T08:04:28.656Z,19.08
2017-08-28T08:05:39.229Z,19.04
2017-08-28T08:06:49.532Z,19.11
2017-08-28T08:07:59.843Z,19.12
2017-08-28T08:09:10.125Z,19.23
2017-08-28T08:10:20.103Z,19.16
2017-08-28T08:11:30.001Z,19.24
2017-08-28T08:12:39.960Z,19.27
2017-08-28T08:13:50.254Z,19.37
2017-08-28T08:15:00.213Z,19.35
2017-08-28T08:16:10.188Z,19.27
2017-08-28T08:17:20.418Z,19.29
2017-08-28T08:18:30.720Z,19.38
2017-08-28T08:19:40.701Z,19.32
2017-08-28T08:20:50.986Z,19.35
2017-08-28T08:22:01.281Z,19.48
2017-08-28T08:23:11.170Z,19.42
2017-08-28T08:24:21.446Z,19.6
2017-08-28T08:25:31.732Z,19.63
2017-08-28T08:26:42.013Z,19.78
2017-08-28T08:27:52.294Z,20.07
2017-08-28T08:29:02.190Z,20.22
2017-08-28T08:30:12.485Z,20.5
2017-08-28T08:31:22.449Z,20.71
2017-08-28T08:32:32.419Z,20.88
2017-08-28T08:33:42.375Z,21.01
2017-08-28T08:34:52.920Z,21.05
2017-08-28T08:36:02.895Z,20.96
2017-08-28T08:37:12.854Z,20.9
2017-08-28T08:38:23.160Z,21.04
2017-08-28T08:39:33.468Z,21.14
2017-08-28T08:40:44.012Z,21.22
2017-08-28T08:41:53.958Z,21.47
2017-08-28T08:43:03.624Z,21.58
2017-08-28T08:44:13.293Z,21.54
2017-08-28T08:45:23.574Z,21.6
2017-08-28T08:46:34.111Z,21.54
2017-08-28T08:47:44.074Z,21.47
2017-08-28T08:48:54.040Z,21.3
2017-08-28T08:50:04.062Z,21.28
2017-08-28T08:51:14.372Z,21.43
2017-08-28T08:52:24.927Z,21.65
2017-08-28T08:53:34.908Z,21.72
2017-08-28T08:54:44.544Z,21.78
2017-08-28T08:55:54.873Z,21.94
2017-08-28T08:57:04.868Z,22.16
2017-08-28T08:58:15.431Z,22.65
2017-08-28T08:59:25.091Z,22.89
2017-08-28T09:00:35.058Z,22.99
2017-08-28T09:01:45.334Z,22.86
2017-08-28T09:02:55.603Z,22.76
2017-08-28T09:04:06.167Z,22.68
2017-08-28T09:05:16.477Z,22.67
2017-08-28T09:06:26.758Z,22.7
2017-08-28T09:07:37.049Z,22.61
2017-08-28T09:08:47.032Z,22.67
2017-08-28T09:09:57.580Z,22.65
2017-08-28T09:11:07.559Z,22.46
2017-08-28T09:12:17.859Z,22.51
2017-08-28T09:13:27.842Z,22.52
2017-08-28T09:14:38.136Z,22.47
2017-08-28T09:15:48.675Z,22.63
2017-08-28T09:16:58.987Z,22.65
2017-08-28T09:18:09.306Z,22.84
2017-08-28T09:19:19.619Z,23.17
2017-08-28T09:20:30.097Z,23.51
2017-08-28T09:21:40.002Z,24.03
2017-08-28T09:22:50.280Z,24.46
2017-08-28T09:24:00.595Z,24.81
2017-08-28T09:25:10.576Z,25.03
2017-08-28T09:26:20.894Z,25.09
2017-08-28T09:27:31.506Z,24.86
2017-08-28T09:28:41.792Z,24.88
2017-08-28T09:29:52.099Z,24.92
2017-08-28T09:31:02.405Z,24.81
2017-08-28T09:32:12.085Z,24.88
2017-08-28T09:33:22.652Z,24.68
2017-08-28T09:34:32.935Z,24.53
2017-08-28T09:35:43.223Z,24.38
2017-08-28T09:36:53.537Z,24.24
2017-08-28T09:38:03.524Z,24.22
2017-08-28T09:39:13.751Z,24.13
2017-08-28T09:40:24.051Z,24.06
2017-08-28T09:41:34.346Z,23.95
2017-08-28T09:42:44.636Z,23.88
2017-08-28T09:43:54.933Z,24.01
2017-08-28T09:45:05.160Z,24.19
2017-08-28T09:46:15.469Z,24.25
2017-08-28T09:47:25.758Z,24.21
2017-08-28T09:48:36.076Z,24.25
2017-08-28T09:49:45.741Z,24.43
2017-08-28T09:50:55.969Z,24.61
2017-08-28T09:52:06.301Z,24.62
2017-08-28T09:53:16.301Z,24.88
2017-08-28T09:54:26.605Z,24.68
2017-08-28T09:55:36.591Z,24.34
2017-08-28T09:56:47.191Z,24.26
2017-08-28T09:57:57.493Z,24.13
2017-08-28T09:59:07.454Z,23.99
2017-08-28T10:00:17.422Z,24.24
2017-08-28T10:01:27.730Z,24.22
2017-08-28T10:02:38.273Z,24.85
2017-08-28T10:03:48.578Z,25.06
2017-08-28T10:04:58.563Z,25.44
2017-08-28T10:06:08.716Z,25.92
2017-08-28T10:07:19.016Z,26.34
2017-08-28T10:08:29.279Z,26.67
2017-08-28T10:09:39.572Z,27.22
2017-08-28T10:10:49.871Z,27.23
2017-08-28T10:11:59.845Z,27.45
2017-08-28T10:13:09.837Z,27.43
2017-08-28T10:14:20.085Z,26.97
2017-08-28T10:15:30.411Z,26.93
2017-08-28T10:16:40.707Z,26.68
2017-08-28T10:17:50.699Z,26.66
2017-08-28T10:19:01.012Z,27.07
2017-08-28T10:20:11.561Z,27.57
2017-08-28T10:21:21.558Z,28.08
2017-08-28T10:22:31.880Z,28.52
2017-08-28T10:23:42.190Z,28.87
2017-08-28T10:24:52.501Z,28.8
2017-08-28T10:26:02.714Z,28.35
2017-08-28T10:27:12.683Z,28.09
2017-08-28T10:28:22.980Z,27.82
2017-08-28T10:29:33.260Z,27.76
2017-08-28T10:30:43.577Z,27.71
2017-08-28T10:31:53.822Z,27.73
2017-08-28T10:33:03.783Z,27.88
2017-08-28T10:34:14.066Z,28.41
2017-08-28T10:35:24.375Z,29.02
2017-08-28T10:36:34.662Z,29.49
2017-08-28T10:37:45.180Z,29.1
2017-08-28T10:38:55.500Z,28.78
2017-08-28T10:40:05.765Z,28.27
2017-08-28T10:41:16.048Z,27.76
2017-08-28T10:42:26.030Z,28.06
2017-08-28T10:43:36.661Z,28.45
2017-08-28T10:44:46.642Z,28.53
2017-08-28T10:45:56.945Z,28.72
2017-08-28T10:47:06.932Z,28.97
2017-08-28T10:48:16.912Z,29.2
2017-08-28T10:49:27.141Z,29
2017-08-28T10:50:36.831Z,28.94
2017-08-28T10:51:47.140Z,29.09
2017-08-28T10:52:57.442Z,29.22
2017-08-28T10:54:07.750Z,29.44
2017-08-28T10:55:17.978Z,29.2
2017-08-28T10:56:28.282Z,29.1
2017-08-28T10:57:38.254Z,28.83
2017-08-28T10:58:48.545Z,28.87
2017-08-28T10:59:58.839Z,29.13
2017-08-28T11:01:09.091Z,29.43
2017-08-28T11:02:19.116Z,29.3
2017-08-28T11:03:29.472Z,29.43
2017-08-28T11:04:39.799Z,28.89
2017-08-28T11:05:50.088Z,28.74
2017-08-28T11:07:00.327Z,28.87
2017-08-28T11:08:10.323Z,29.05
2017-08-28T11:09:20.309Z,28.8
2017-08-28T11:10:30.293Z,28.82
2017-08-28T11:11:40.281Z,28.92
2017-08-28T11:12:50.838Z,28.97
2017-08-28T11:14:00.803Z,28.87
2017-08-28T11:15:11.082Z,28.47
2017-08-28T11:16:21.372Z,28.12
2017-08-28T11:17:31.678Z,28.19
2017-08-28T11:18:42.223Z,28
2017-08-28T11:19:52.203Z,27.78
2017-08-28T11:21:02.178Z,27.9
2017-08-28T11:22:12.491Z,27.9
2017-08-28T11:23:22.477Z,27.83
2017-08-28T11:24:33.105Z,27.78
2017-08-28T11:25:43.073Z,27.5
2017-08-28T11:26:53.055Z,26.98
2017-08-28T11:28:03.045Z,26.7
2017-08-28T11:29:13.350Z,26.45
2017-08-28T11:30:23.597Z,26.34
2017-08-28T11:31:33.555Z,26.44
2017-08-28T11:32:43.532Z,25.91
2017-08-28T11:33:53.502Z,25.86
2017-08-28T11:35:03.788Z,25.68
2017-08-28T11:36:14.023Z,25.4
2017-08-28T11:37:24.326Z,25.36
2017-08-28T11:38:34.622Z,25.37
2017-08-28T11:39:44.912Z,25.71
2017-08-28T11:40:55.222Z,26.06
2017-08-28T11:42:05.418Z,26.34
2017-08-28T11:43:15.710Z,26.55
2017-08-28T11:44:25.988Z,27.2
2017-08-28T11:45:36.286Z,27.67
2017-08-28T11:46:45.943Z,27.55
2017-08-28T11:47:56.508Z,27.52
2017-08-28T11:49:06.797Z,27.25
2017-08-28T11:50:17.095Z,27.28
2017-08-28T11:51:27.074Z,27.5
2017-08-28T11:52:37.045Z,27.26
2017-08-28T11:53:47.298Z,27.19
2017-08-28T11:54:57.576Z,27.3
2017-08-28T11:56:07.882Z,27.08
2017-08-28T11:57:18.194Z,27.35
2017-08-28T11:58:28.161Z,27.61
2017-08-28T11:59:38.392Z,27.58
2017-08-28T12:00:48.707Z,27.63
2017-08-28T12:01:58.689Z,27.91
2017-08-28T12:03:08.993Z,28.12
2017-08-28T12:04:19.286Z,28.15
2017-08-28T12:05:29.888Z,28.2
2017-08-28T12:06:40.173Z,28.22
2017-08-28T12:07:50.157Z,27.88
2017-08-28T12:09:00.466Z,28.18
2017-08-28T12:10:10.771Z,28.38
2017-08-28T12:11:21.008Z,27.93
2017-08-28T12:12:31.300Z,28.08
2017-08-28T12:13:41.297Z,27.9
2017-08-28T12:14:51.279Z,27.76
2017-08-28T12:16:01.268Z,28.01
2017-08-28T12:17:11.790Z,27.93
2017-08-28T12:18:22.080Z,27.5
2017-08-28T12:19:32.378Z,26.88
2017-08-28T12:20:42.675Z,26.85
2017-08-28T12:21:52.967Z,26.76
2017-08-28T12:23:03.508Z,26.39
2017-08-28T12:24:13.806Z,26.27
2017-08-28T12:25:24.089Z,26.61
2017-08-28T12:26:34.390Z,27.1
2017-08-28T12:27:44.673Z,27.81
2017-08-28T12:28:55.221Z,28.18
2017-08-28T12:30:05.512Z,28.49
2017-08-28T12:31:15.204Z,28.8
2017-08-28T12:32:25.505Z,28.96
2017-08-28T12:33:35.796Z,28.97
2017-08-28T12:34:46.351Z,29.39
2017-08-28T12:35:56.651Z,29.55
2017-08-28T12:37:06.947Z,29.94
2017-08-28T12:38:17.236Z,29.77
2017-08-28T12:39:27.541Z,29.83
2017-08-28T12:40:37.769Z,30.08
2017-08-28T12:41:48.061Z,30.08
2017-08-28T12:42:57.981Z,29.9
2017-08-28T12:44:07.969Z,29.59
2017-08-28T12:45:18.271Z,29.25
2017-08-28T12:46:28.495Z,29.03
2017-08-28T12:47:38.777Z,28.83
2017-08-28T12:48:49.070Z,28.74
2017-08-28T12:49:59.354Z,28.15
2017-08-28T12:51:09.639Z,28.2
2017-08-28T12:52:19.560Z,28.1
2017-08-28T12:53:29.853Z,28.7
2017-08-28T12:54:39.823Z,28.56
2017-08-28T12:55:50.109Z,28.25
2017-08-28T12:57:00.400Z,28.01
2017-08-28T12:58:10.951Z,27.73
2017-08-28T12:59:21.254Z,27.57
2017-08-28T13:00:31.539Z,27.33
2017-08-28T13:01:41.822Z,27
2017-08-28T13:02:52.130Z,26.73
2017-08-28T13:04:02.702Z,26.49
2017-08-28T13:05:12.994Z,26.26
2017-08-28T13:06:23.321Z,26.41
2017-08-28T13:07:33.286Z,26.81
2017-08-28T13:08:43.271Z,27.19
2017-08-28T13:09:53.170Z,27.58
2017-08-28T13:11:03.156Z,27.73
2017-08-28T13:12:13.172Z,28.1
2017-08-28T13:13:23.478Z,28.64
2017-08-28T13:14:33.813Z,28.9
2017-08-28T13:15:44.360Z,29.02
2017-08-28T13:16:54.340Z,29.1
2017-08-28T13:18:04.634Z,29.15
2017-08-28T13:19:14.940Z,28.77
2017-08-28T13:20:25.223Z,28.37
2017-08-28T13:21:35.450Z,28.01
2017-08-28T13:22:45.754Z,27.57
2017-08-28T13:23:56.068Z,26.91
2017-08-28T13:25:06.384Z,27.03
2017-08-28T13:26:16.356Z,26.93
2017-08-28T13:27:26.903Z,26.83
2017-08-28T13:28:37.198Z,26.71
2017-08-28T13:29:47.176Z,26.83
2017-08-28T13:30:57.486Z,26.88
2017-08-28T13:32:06.833Z,26.67
2017-08-28T13:33:17.378Z,27.03
2017-08-28T13:34:27.696Z,27.16
2017-08-28T13:35:37.672Z,27.5
2017-08-28T13:36:47.952Z,27.76
2017-08-28T13:37:57.939Z,28.1
2017-08-28T13:39:08.499Z,28.28
2017-08-28T13:40:18.788Z,28.52
2017-08-28T13:41:28.437Z,28.5
2017-08-28T13:42:38.729Z,28.2
2017-08-28T13:43:49.021Z,28.16
2017-08-28T13:44:59.244Z,28.18
2017-08-28T13:46:09.568Z,28.53
2017-08-28T13:47:19.544Z,28.22
2017-08-28T13:48:29.840Z,27.78
2017-08-28T13:49:40.144Z,27.66
2017-08-28T13:50:50.684Z,27.53
2017-08-28T13:52:00.982Z,27.45
2017-08-28T13:53:11.286Z,27.45
2017-08-28T13:54:21.278Z,27.4
2017-08-28T13:55:31.571Z,27.28
2017-08-28T13:56:41.798Z,27.11
2017-08-28T13:57:52.110Z,27.15
2017-08-28T13:59:02.408Z,26.79
2017-08-28T14:00:12.373Z,26.61
2017-08-28T14:01:22.341Z,26.56
2017-08-28T14:02:32.887Z,26.48
2017-08-28T14:03:43.179Z,26.63
2017-08-28T14:04:53.476Z,26.61
2017-08-28T14:06:03.456Z,26.55
2017-08-28T14:07:13.758Z,26.52
2017-08-28T14:08:23.669Z,26.26
2017-08-28T14:09:33.640Z,26.3
2017-08-28T14:10:43.934Z,26.37
2017-08-28T14:11:53.909Z,26.33
2017-08-28T14:13:04.217Z,26.16
2017-08-28T14:14:14.441Z,26.48
2017-08-28T14:15:24.403Z,26.98
2017-08-28T14:16:34.750Z,27.43
2017-08-28T14:17:44.707Z,27.3
2017-08-28T14:18:55.005Z,27.75
2017-08-28T14:20:05.534Z,27.43
2017-08-28T14:21:15.824Z,27.5
2017-08-28T14:22:25.806Z,27.5
2017-08-28T14:23:35.153Z,27.55
2017-08-28T14:24:45.423Z,27.57
2017-08-28T14:25:55.668Z,27.75
2017-08-28T14:27:05.948Z,27.4
2017-08-28T14:28:16.236Z,27.41
2017-08-28T14:29:26.206Z,27.15
2017-08-28T14:30:36.175Z,27.44
2017-08-28T14:31:46.412Z,27.73
2017-08-28T14:32:56.694Z,27.72
2017-08-28T14:34:06.985Z,27.75
2017-08-28T14:35:17.286Z,27.88
2017-08-28T14:36:27.561Z,27.72
2017-08-28T14:37:38.103Z,27.91
2017-08-28T14:38:48.079Z,27.94
2017-08-28T14:39:58.053Z,28.3
2017-08-28T14:41:08.044Z,28.35
2017-08-28T14:42:18.007Z,28.34
2017-08-28T14:43:28.569Z,28.31
2017-08-28T14:44:38.859Z,28
2017-08-28T14:45:48.871Z,27.55
2017-08-28T14:46:58.840Z,27.61
2017-08-28T14:48:09.142Z,27.95
2017-08-28T14:49:19.702Z,28.13
2017-08-28T14:50:29.811Z,28.19
2017-08-28T14:51:39.464Z,28.1
2017-08-28T14:52:49.748Z,28.13
2017-08-28T14:54:00.025Z,28.22
2017-08-28T14:55:10.557Z,28.13
2017-08-28T14:56:20.226Z,28.13
2017-08-28T14:57:30.524Z,28.16
2017-08-28T14:58:40.826Z,28.41
2017-08-28T14:59:50.800Z,28.35
2017-08-28T15:01:01.348Z,27.9
2017-08-28T15:02:11.644Z,27.44
2017-08-28T15:03:21.948Z,26.97
2017-08-28T15:04:31.618Z,27.19
2017-08-28T15:05:41.913Z,27.52
2017-08-28T15:06:52.455Z,27.35
2017-08-28T15:08:02.447Z,27.34
2017-08-28T15:09:12.726Z,27.29
2017-08-28T15:10:22.707Z,27.08
2017-08-28T15:11:33.161Z,26.78
2017-08-28T15:12:43.703Z,26.73
2017-08-28T15:13:54.005Z,26.67
2017-08-28T15:15:03.973Z,26.76
2017-08-28T15:16:13.957Z,26.98
2017-08-28T15:17:24.289Z,27.22
2017-08-28T15:18:34.842Z,27.48
2017-08-28T15:19:44.844Z,27.88
2017-08-28T15:20:54.817Z,28.34
2017-08-28T15:22:04.475Z,28.71
2017-08-28T15:23:14.770Z,29.07
2017-08-28T15:24:25.035Z,29.21
2017-08-28T15:25:34.710Z,29.43
2017-08-28T15:26:45.013Z,29.55
2017-08-28T15:27:54.673Z,29.39
2017-08-28T15:29:04.655Z,28.77
2017-08-28T15:30:15.213Z,28.23
2017-08-28T15:31:25.199Z,27.81
2017-08-28T15:32:35.477Z,27.86
2017-08-28T15:33:45.778Z,27.5
2017-08-28T15:34:55.753Z,27.41
2017-08-28T15:36:05.671Z,27.48
2017-08-28T15:37:15.976Z,27.53
2017-08-28T15:38:26.273Z,27.64
2017-08-28T15:39:36.576Z,27.75
2017-08-28T15:40:46.845Z,27.45
2017-08-28T15:41:57.384Z,27.08
2017-08-28T15:43:07.034Z,27.08
2017-08-28T15:44:17.023Z,26.89
2017-08-28T15:45:27.002Z,26.81
2017-08-28T15:46:37.306Z,26.81
2017-08-28T15:47:47.854Z,26.96
2017-08-28T15:48:57.838Z,26.53
2017-08-28T15:50:08.140Z,26.29
2017-08-28T15:51:18.444Z,26.3
2017-08-28T15:52:28.751Z,26.48
2017-08-28T15:53:39.293Z,26.73
2017-08-28T15:54:48.939Z,26.81
2017-08-28T15:55:58.616Z,26.97
2017-08-28T15:57:08.587Z,27.01
2017-08-28T15:58:18.545Z,26.88
2017-08-28T15:59:29.072Z,26.74
2017-08-28T16:00:39.357Z,26.92
2017-08-28T16:01:49.642Z,26.98
2017-08-28T16:02:59.286Z,26.64
2017-08-28T16:04:09.278Z,26.44
2017-08-28T16:05:19.199Z,26.29
2017-08-28T16:06:29.492Z,26.04
2017-08-28T16:07:39.819Z,25.98
2017-08-28T16:08:49.792Z,25.8
2017-08-28T16:10:00.070Z,25.8
2017-08-28T16:11:10.283Z,25.95
2017-08-28T16:12:20.571Z,26.07
2017-08-28T16:13:30.857Z,26.18
2017-08-28T16:14:40.838Z,26.56
2017-08-28T16:15:51.118Z,26.7
2017-08-28T16:17:01.659Z,26.89
2017-08-28T16:18:11.978Z,26.82
2017-08-28T16:19:21.954Z,26.89
2017-08-28T16:20:31.923Z,26.76
2017-08-28T16:21:42.225Z,26.6
2017-08-28T16:22:52.759Z,26.33
2017-08-28T16:24:02.398Z,26.27
2017-08-28T16:25:12.690Z,26.36
2017-08-28T16:26:22.665Z,26.44
2017-08-28T16:27:32.953Z,26.34
2017-08-28T16:28:43.503Z,26.18
2017-08-28T16:29:53.795Z,26.42
2017-08-28T16:31:04.091Z,26.59
2017-08-28T16:32:13.746Z,26.86
2017-08-28T16:33:24.056Z,27.01
2017-08-28T16:34:34.600Z,26.93
2017-08-28T16:35:44.861Z,26.89
2017-08-28T16:36:55.143Z,26.91
2017-08-28T16:38:05.126Z,27.07
2017-08-28T16:39:15.437Z,27.15
2017-08-28T16:40:25.991Z,27.07
2017-08-28T16:41:36.279Z,27.18
2017-08-28T16:42:45.929Z,27.23
2017-08-28T16:43:55.273Z,27.16
2017-08-28T16:45:05.553Z,27.15
2017-08-28T16:46:16.143Z,27.04
2017-08-28T16:47:26.123Z,27.07
2017-08-28T16:48:36.414Z,27.11
2017-08-28T16:49:46.696Z,27.08
2017-08-28T16:50:56.374Z,27.03
2017-08-28T16:52:06.909Z,26.85
2017-08-28T16:53:17.223Z,26.78
2017-08-28T16:54:27.193Z,26.59
2017-08-28T16:55:37.478Z,26.49
2017-08-28T16:56:47.444Z,26.34
2017-08-28T16:57:58.010Z,26.22
2017-08-28T16:59:08.321Z,26.29
2017-08-28T17:00:18.635Z,26.29
2017-08-28T17:01:28.604Z,26.22
2017-08-28T17:02:38.919Z,25.93
2017-08-28T17:03:49.146Z,25.99
2017-08-28T17:04:59.470Z,25.93
2017-08-28T17:06:09.453Z,25.89
2017-08-28T17:07:19.121Z,25.85
2017-08-28T17:08:29.096Z,25.83
2017-08-28T17:09:39.686Z,25.62
2017-08-28T17:10:50.017Z,25.66
2017-08-28T17:11:59.665Z,25.48
2017-08-28T17:13:09.947Z,25.41
2017-08-28T17:14:20.243Z,25.49
2017-08-28T17:15:30.477Z,25.4
2017-08-28T17:16:40.779Z,25.31
2017-08-28T17:17:50.752Z,25.16
2017-08-28T17:19:00.723Z,25.01
2017-08-28T17:20:10.687Z,24.86
2017-08-28T17:21:21.246Z,24.81
2017-08-28T17:22:31.535Z,24.62
2017-08-28T17:23:41.495Z,24.71
2017-08-28T17:24:51.836Z,24.79
2017-08-28T17:26:02.127Z,24.69
2017-08-28T17:27:12.333Z,24.56
2017-08-28T17:28:22.615Z,24.46
2017-08-28T17:29:32.584Z,24.51
2017-08-28T17:30:42.869Z,24.34
2017-08-28T17:31:53.172Z,24.47
2017-08-28T17:33:03.716Z,24.4
2017-08-28T17:34:13.684Z,24.31
2017-08-28T17:35:24.005Z,24.26
2017-08-28T17:36:34.311Z,24.26
2017-08-28T17:37:44.273Z,24.13
2017-08-28T17:38:54.547Z,24.24
2017-08-28T17:40:04.826Z,24.06
2017-08-28T17:41:15.129Z,23.99
2017-08-28T17:42:25.424Z,23.79
2017-08-28T17:43:35.422Z,23.73
2017-08-28T17:44:45.953Z,23.7
2017-08-28T17:45:56.255Z,23.56
2017-08-28T17:47:06.589Z,23.48
2017-08-28T17:48:16.228Z,23.36
2017-08-28T17:49:26.532Z,23.32
2017-08-28T17:50:36.764Z,23.28
2017-08-28T17:51:47.049Z,23.21
2017-08-28T17:52:57.327Z,23.13
2017-08-28T17:54:07.606Z,23.02
2017-08-28T17:55:17.580Z,22.99
2017-08-28T17:56:28.141Z,22.95
2017-08-28T17:57:38.435Z,22.77
2017-08-28T17:58:48.715Z,22.7
2017-08-28T17:59:59.001Z,22.68
2017-08-28T18:01:09.304Z,22.61
2017-08-28T18:02:19.885Z,22.49
2017-08-28T18:03:29.849Z,22.49
2017-08-28T18:04:39.812Z,22.33
2017-08-28T18:05:49.777Z,22.26
2017-08-28T18:06:59.747Z,22.16
2017-08-28T18:08:09.981Z,22.19
2017-08-28T18:09:20.268Z,22.19
2017-08-28T18:10:30.572Z,22.14
2017-08-28T18:11:40.862Z,22.21
2017-08-28T18:12:51.158Z,22.07
2017-08-28T18:14:01.393Z,22.04
2017-08-28T18:15:11.047Z,22.04
2017-08-28T18:16:21.030Z,22.04
2017-08-28T18:17:31.327Z,21.89
2017-08-28T18:18:41.294Z,21.81
2017-08-28T18:19:51.520Z,21.74
2017-08-28T18:21:01.472Z,21.8
2017-08-28T18:22:11.748Z,21.59
2017-08-28T18:23:22.042Z,21.62
2017-08-28T18:24:31.992Z,21.58
2017-08-28T18:25:42.552Z,21.56
2017-08-28T18:26:52.847Z,21.56
2017-08-28T18:28:02.492Z,21.47
2017-08-28T18:29:12.787Z,21.41
2017-08-28T18:30:23.063Z,21.4
2017-08-28T18:31:33.599Z,21.3
2017-08-28T18:32:43.555Z,21.28
2017-08-28T18:33:53.845Z,21.29
2017-08-28T18:35:04.130Z,21.33
2017-08-28T18:36:14.420Z,21.2
2017-08-28T18:37:24.962Z,21.29
2017-08-28T18:38:34.912Z,21.22
2017-08-28T18:39:45.198Z,21.19
2017-08-28T18:40:55.177Z,21.13
2017-08-28T18:42:05.141Z,21.23
2017-08-28T18:43:15.364Z,21.15
2017-08-28T18:44:25.639Z,21.23
2017-08-28T18:45:35.912Z,21.14
2017-08-28T18:46:45.882Z,21.15
2017-08-28T18:47:56.173Z,21.17
2017-08-28T18:49:06.753Z,21.15
2017-08-28T18:50:17.049Z,21.13
2017-08-28T18:51:27.363Z,21.08
2017-08-28T18:52:37.673Z,21.07
2017-08-28T18:53:47.953Z,20.92
2017-08-28T18:54:58.499Z,20.98
2017-08-28T18:56:08.789Z,20.98
2017-08-28T18:57:19.097Z,21.04
2017-08-28T18:58:29.396Z,20.96
2017-08-28T18:59:39.685Z,21.03
2017-08-28T19:00:49.915Z,21
2017-08-28T19:02:00.195Z,21.05
2017-08-28T19:03:09.864Z,20.9
2017-08-28T19:04:20.140Z,20.96
2017-08-28T19:05:30.117Z,20.92
2017-08-28T19:06:40.673Z,20.92
2017-08-28T19:07:50.659Z,20.89
2017-08-28T19:09:00.313Z,20.88
2017-08-28T19:10:10.268Z,20.9
2017-08-28T19:11:20.552Z,20.88
2017-08-28T19:12:31.083Z,20.78
2017-08-28T19:13:41.385Z,20.82
2017-08-28T19:14:51.359Z,20.83
2017-08-28T19:16:01.670Z,20.83
2017-08-28T19:17:11.977Z,20.83
2017-08-28T19:18:22.500Z,20.8
2017-08-28T19:19:32.160Z,20.73
2017-08-28T19:20:41.831Z,20.74
2017-08-28T19:21:52.129Z,20.75
2017-08-28T19:23:01.781Z,20.78
2017-08-28T19:24:11.999Z,20.73
2017-08-28T19:25:22.287Z,20.67
2017-08-28T19:26:32.258Z,20.64
2017-08-28T19:27:42.643Z,20.64
2017-08-28T19:28:52.619Z,20.68
2017-08-28T19:30:03.156Z,20.63
2017-08-28T19:31:13.479Z,20.66
2017-08-28T19:32:23.456Z,20.64
2017-08-28T19:33:33.433Z,20.58
2017-08-28T19:34:43.719Z,20.56
2017-08-28T19:35:54.277Z,20.66
2017-08-28T19:37:04.609Z,20.55
2017-08-28T19:38:14.254Z,20.56
2017-08-28T19:39:24.267Z,20.58
2017-08-28T19:40:34.558Z,20.53
2017-08-28T19:41:44.804Z,20.55
2017-08-28T19:42:54.896Z,20.52
2017-08-28T19:44:05.203Z,20.53
2017-08-28T19:45:15.182Z,20.4
2017-08-28T19:46:25.479Z,20.46
2017-08-28T19:47:36.014Z,20.42
2017-08-28T19:48:46.319Z,20.39
2017-08-28T19:49:56.622Z,20.29
2017-08-28T19:51:06.901Z,20.3
2017-08-28T19:52:16.885Z,20.37
2017-08-28T19:53:27.107Z,20.27
2017-08-28T19:54:37.409Z,20.21
2017-08-28T19:55:47.370Z,20.18
2017-08-28T19:56:57.318Z,20.27
2017-08-28T19:58:07.599Z,20.19
2017-08-28T19:59:18.149Z,20.26
2017-08-28T20:00:28.471Z,20.18
2017-08-28T20:01:38.781Z,20.26
2017-08-28T20:02:49.069Z,20.14
2017-08-28T20:03:59.379Z,20.1
2017-08-28T20:05:09.914Z,20.1
2017-08-28T20:06:20.215Z,20.12
2017-08-28T20:07:30.180Z,20.08
2017-08-28T20:08:40.465Z,20.03
2017-08-28T20:09:50.788Z,19.93
2017-08-28T20:11:01.325Z,19.96
2017-08-28T20:12:11.314Z,19.92
2017-08-28T20:13:21.616Z,19.94
2017-08-28T20:14:31.889Z,19.89
2017-08-28T20:15:42.180Z,19.82
2017-08-28T20:16:52.406Z,19.75
2017-08-28T20:18:02.682Z,19.78
2017-08-28T20:19:12.965Z,19.71
2017-08-28T20:20:23.283Z,19.7
2017-08-28T20:21:33.581Z,19.67
2017-08-28T20:22:44.121Z,19.67
2017-08-28T20:23:54.424Z,19.66
2017-08-28T20:25:04.754Z,19.62
2017-08-28T20:26:15.057Z,19.59
2017-08-28T20:27:25.037Z,19.56
2017-08-28T20:28:35.582Z,19.56
2017-08-28T20:29:45.255Z,19.52
2017-08-28T20:30:55.555Z,19.48
2017-08-28T20:32:05.863Z,19.52
2017-08-28T20:33:16.153Z,19.35
2017-08-28T20:34:26.044Z,19.39
2017-08-28T20:35:36.318Z,19.35
2017-08-28T20:36:46.601Z,19.35
2017-08-28T20:37:56.873Z,19.34
2017-08-28T20:39:07.159Z,19.34
2017-08-28T20:40:17.368Z,19.3
2017-08-28T20:41:27.329Z,19.29
2017-08-28T20:42:37.622Z,19.26
2017-08-28T20:43:47.585Z,19.26
2017-08-28T20:44:57.242Z,19.24
2017-08-28T20:46:07.808Z,19.2
2017-08-28T20:47:17.794Z,19.17
2017-08-28T20:48:27.775Z,19.07
2017-08-28T20:49:38.068Z,19.04
2017-08-28T20:50:48.358Z,18.97
2017-08-28T20:51:58.887Z,18.85
2017-08-28T20:53:08.570Z,18.79
2017-08-28T20:54:18.526Z,18.73
2017-08-28T20:55:28.810Z,18.64
2017-08-28T20:56:38.772Z,18.61
2017-08-28T20:57:48.992Z,18.58
2017-08-28T20:58:59.283Z,18.57
2017-08-28T21:00:09.244Z,18.49
2017-08-28T21:01:19.534Z,18.48
2017-08-28T21:02:29.850Z,18.49
2017-08-28T21:03:40.382Z,18.46
2017-08-28T21:04:50.649Z,18.45
2017-08-28T21:06:00.925Z,18.49
2017-08-28T21:07:11.204Z,18.45
2017-08-28T21:08:21.169Z,18.39
2017-08-28T21:09:31.401Z,18.37
2017-08-28T21:10:41.671Z,18.37
2017-08-28T21:11:51.967Z,18.36
2017-08-28T21:13:01.611Z,18.28
2017-08-28T21:14:11.883Z,18.27
2017-08-28T21:15:21.838Z,18.23
2017-08-28T21:16:32.130Z,18.26
2017-08-28T21:17:42.404Z,18.34
2017-08-28T21:18:52.368Z,18.23
2017-08-28T21:20:02.645Z,18.3
2017-08-28T21:21:13.166Z,18.3
2017-08-28T21:22:23.151Z,18.23
2017-08-28T21:23:33.429Z,18.26
2017-08-28T21:24:43.720Z,18.23
2017-08-28T21:25:53.983Z,18.23
2017-08-28T21:27:04.529Z,18.26
2017-08-28T21:28:14.818Z,18.19
2017-08-28T21:29:25.095Z,18.11
2017-08-28T21:30:35.395Z,18.09
2017-08-28T21:31:45.672Z,18.08
2017-08-28T21:32:55.884Z,18.03
2017-08-28T21:34:05.866Z,18.09
2017-08-28T21:35:16.156Z,18.05
2017-08-28T21:36:26.448Z,17.98
2017-08-28T21:37:36.721Z,18.03
2017-08-28T21:38:47.233Z,17.93
2017-08-28T21:39:57.200Z,17.95
2017-08-28T21:41:07.196Z,17.91
2017-08-28T21:42:17.182Z,17.86
2017-08-28T21:43:27.155Z,17.88
2017-08-28T21:44:37.704Z,17.8
2017-08-28T21:45:48.010Z,17.8
2017-08-28T21:46:58.286Z,17.84
2017-08-28T21:48:07.934Z,17.82
2017-08-28T21:49:18.219Z,17.84
2017-08-28T21:50:28.774Z,17.8
2017-08-28T21:51:39.060Z,17.86
2017-08-28T21:52:49.350Z,17.78
2017-08-28T21:53:59.622Z,17.78
2017-08-28T21:55:09.272Z,17.75
2017-08-28T21:56:19.472Z,17.79
2017-08-28T21:57:29.759Z,17.79
2017-08-28T21:58:39.735Z,17.8
2017-08-28T21:59:49.694Z,17.71
2017-08-28T22:00:59.988Z,17.73
2017-08-28T22:02:10.529Z,17.78
2017-08-28T22:03:20.807Z,17.73
2017-08-28T22:04:31.086Z,17.76
2017-08-28T22:05:41.055Z,17.65
2017-08-28T22:06:51.361Z,17.6
2017-08-28T22:08:01.881Z,17.66
2017-08-28T22:09:11.513Z,17.69
2017-08-28T22:10:21.814Z,17.68
2017-08-28T22:11:31.772Z,17.6
2017-08-28T22:12:41.762Z,17.63
2017-08-28T22:13:52.304Z,17.71
2017-08-28T22:15:02.310Z,17.66
2017-08-28T22:16:12.280Z,17.65
2017-08-28T22:17:22.558Z,17.66
2017-08-28T22:18:32.876Z,17.65
2017-08-28T22:19:43.430Z,17.49
2017-08-28T22:20:53.713Z,17.56
2017-08-28T22:22:03.996Z,17.6
2017-08-28T22:23:14.278Z,17.52
2017-08-28T22:24:23.917Z,17.5
2017-08-28T22:25:34.445Z,17.5
2017-08-28T22:26:44.730Z,17.46
2017-08-28T22:27:55.011Z,17.39
2017-08-28T22:29:04.647Z,17.35
2017-08-28T22:30:14.618Z,17.31
2017-08-28T22:31:25.153Z,17.23
2017-08-28T22:32:35.434Z,17.24
2017-08-28T22:33:45.398Z,17.27
2017-08-28T22:34:55.374Z,17.2
2017-08-28T22:36:05.663Z,17.24
2017-08-28T22:37:15.563Z,17.23
2017-08-28T22:38:25.839Z,17.27